Time;durP1;ratioP1;P1;durP2;ratioP2;P2;SDS_P1;SDS_P2;PMS_P1;PMS_P2;Temp;Humidity;BMP_temperature;BMP_pressure;BME280_temperature;BME280_humidity;BME280_pressure;Samples;Min_cycle;Max_cycle;Signal;HPM_P1;HPM_P2
2023/11/01 00:01:40;;;;;;;10.50;5.20;;;;;;;;;;2613234;46;20439;-76
2023/11/01 00:04:07;;;;;;;11.33;5.10;;;;;;;;;;2613484;54;20424;-75
2023/11/01 00:06:34;;;;;;;8.07;4.67;;;;;;;;;;2613038;47;20490;-75
2023/11/01 00:09:00;;;;;;;11.33;5.20;;;;;;;;;;2613472;54;20415;-75
2023/11/01 00:11:26;;;;;;;13.97;4.87;;;;;;;;;;2613204;54;21382;-75
2023/11/01 00:13:52;;;;;;;21.80;5.97;;;;;;;;;;2613162;54;20532;-75
2023/11/01 00:16:19;;;;;;;7.27;4.17;;;;;;;;;;2612717;39;20848;-77
2023/11/01 00:18:46;;;;;;;7.80;4.77;;;;;;;;;;2612732;47;20436;-76
2023/11/01 00:21:13;;;;;;;7.27;4.10;;;;;;;;;;2612435;47;20430;-77
2023/11/01 00:23:39;;;;;;;12.97;4.50;;;;;;;;;;2613467;54;20391;-77
2023/11/01 00:26:06;;;;;;;8.37;4.27;;;;;;;;;;2612607;46;20966;-76
2023/11/01 00:28:33;;;;;;;12.93;5.27;;;;;;;;;;2612652;47;20415;-75
2023/11/01 00:30:59;;;;;;;12.90;4.53;;;;;;;;;;2613877;39;20828;-75
2023/11/01 00:33:25;;;;;;;7.87;4.90;;;;;;;;;;2612413;54;20551;-75
2023/11/01 00:35:51;;;;;;;13.60;5.40;;;;;;;;;;2612912;54;20396;-76
2023/11/01 00:38:21;;;;;;;8.37;4.30;;;;;;;;;;2612623;54;20415;-75
2023/11/01 00:40:47;;;;;;;14.97;5.37;;;;;;;;;;2612225;47;20416;-74
2023/11/01 00:43:13;;;;;;;5.20;3.50;;;;;;;;;;2612404;54;20435;-76
2023/11/01 00:45:39;;;;;;;13.63;4.70;;;;;;;;;;2612723;54;20471;-75
2023/11/01 00:48:05;;;;;;;4.80;3.47;;;;;;;;;;2612875;54;20431;-75
2023/11/01 00:50:31;;;;;;;18.10;4.83;;;;;;;;;;2611921;47;20898;-76
2023/11/01 00:52:57;;;;;;;17.30;5.10;;;;;;;;;;2613046;54;20399;-75
2023/11/01 00:55:23;;;;;;;8.47;4.30;;;;;;;;;;2612382;54;20431;-75
2023/11/01 00:57:50;;;;;;;11.53;4.03;;;;;;;;;;2612392;47;20419;-76
2023/11/01 01:00:17;;;;;;;10.30;4.63;;;;;;;;;;2612910;54;20416;-76
2023/11/01 01:02:43;;;;;;;6.67;4.00;;;;;;;;;;2612690;54;20423;-75
2023/11/01 01:05:09;;;;;;;8.30;3.80;;;;;;;;;;2612856;54;20396;-75
2023/11/01 01:07:35;;;;;;;12.50;4.40;;;;;;;;;;2613533;39;20817;-75
2023/11/01 01:10:01;;;;;;;11.53;3.50;;;;;;;;;;2612943;39;20865;-75
2023/11/01 01:12:27;;;;;;;10.20;4.67;;;;;;;;;;2612700;54;20400;-74
2023/11/01 01:14:54;;;;;;;8.30;4.27;;;;;;;;;;2613095;54;20450;-74
2023/11/01 01:17:20;;;;;;;14.30;5.90;;;;;;;;;;2612047;47;20432;-75
2023/11/01 01:19:46;;;;;;;13.73;5.13;;;;;;;;;;2612969;54;20510;-75
2023/11/01 01:22:12;;;;;;;9.90;5.10;;;;;;;;;;2611501;54;20412;-75
2023/11/01 01:24:38;;;;;;;12.97;4.63;;;;;;;;;;2613340;54;20431;-75
2023/11/01 01:27:05;;;;;;;9.27;4.13;;;;;;;;;;2612906;54;20507;-74
2023/11/01 01:29:32;;;;;;;14.43;4.60;;;;;;;;;;2613104;54;20503;-75
2023/11/01 01:31:58;;;;;;;14.17;4.40;;;;;;;;;;2612305;54;20411;-75
2023/11/01 01:34:24;;;;;;;11.30;3.97;;;;;;;;;;2612420;54;20434;-75
2023/11/01 01:36:50;;;;;;;7.60;3.83;;;;;;;;;;2613243;54;20434;-75
2023/11/01 01:39:16;;;;;;;7.20;4.20;;;;;;;;;;2612613;54;20396;-75
2023/11/01 01:41:42;;;;;;;5.53;3.93;;;;;;;;;;2613378;54;21015;-78
2023/11/01 01:44:08;;;;;;;7.93;3.70;;;;;;;;;;2612315;54;20558;-78
2023/11/01 01:46:34;;;;;;;7.97;4.57;;;;;;;;;;2612975;54;20420;-77
2023/11/01 01:49:01;;;;;;;10.33;3.53;;;;;;;;;;2612219;54;20427;-79
2023/11/01 01:51:27;;;;;;;8.73;3.47;;;;;;;;;;2612834;54;20454;-76
2023/11/01 01:53:55;;;;;;;7.83;3.40;;;;;;;;;;2612739;54;20429;-77
2023/11/01 01:56:21;;;;;;;11.63;4.80;;;;;;;;;;2612987;54;20408;-78
2023/11/01 01:58:50;;;;;;;8.73;3.67;;;;;;;;;;2612099;54;20459;-77
2023/11/01 02:01:17;;;;;;;7.77;3.20;;;;;;;;;;2611851;47;20511;-77
2023/11/01 02:03:43;;;;;;;6.33;3.03;;;;;;;;;;2613382;54;20394;-77
2023/11/01 02:06:09;;;;;;;11.47;3.60;;;;;;;;;;2613228;39;20818;-77
2023/11/01 02:08:36;;;;;;;12.27;3.03;;;;;;;;;;2613072;54;20415;-77
2023/11/01 02:11:05;;;;;;;6.67;2.50;;;;;;;;;;2612094;47;20412;-77
2023/11/01 02:13:31;;;;;;;8.20;2.90;;;;;;;;;;2613484;54;20400;-76
2023/11/01 02:15:57;;;;;;;14.60;5.13;;;;;;;;;;2612376;54;20412;-77
2023/11/01 02:18:23;;;;;;;8.20;2.97;;;;;;;;;;2612985;54;20388;-77
2023/11/01 02:20:52;;;;;;;11.40;3.77;;;;;;;;;;2612333;47;20431;-76
2023/11/01 02:23:18;;;;;;;6.00;3.73;;;;;;;;;;2612629;54;20388;-78
2023/11/01 02:25:44;;;;;;;7.03;3.00;;;;;;;;;;2612174;47;20546;-78
2023/11/01 02:28:11;;;;;;;4.90;3.13;;;;;;;;;;2612810;47;20412;-77
2023/11/01 02:30:39;;;;;;;9.63;3.53;;;;;;;;;;2612426;39;20493;-77
2023/11/01 02:33:06;;;;;;;9.90;3.77;;;;;;;;;;2612697;54;20419;-77
2023/11/01 02:35:32;;;;;;;9.33;4.13;;;;;;;;;;2613180;54;20406;-78
2023/11/01 02:37:58;;;;;;;5.77;2.93;;;;;;;;;;2613401;39;20761;-76
2023/11/01 02:40:24;;;;;;;7.30;3.13;;;;;;;;;;2612657;54;20464;-75
2023/11/01 02:42:55;;;;;;;10.07;3.40;;;;;;;;;;2613336;54;20406;-76
2023/11/01 02:45:21;;;;;;;4.10;3.00;;;;;;;;;;2612459;47;20455;-76
2023/11/01 02:47:51;;;;;;;7.63;2.93;;;;;;;;;;2612849;54;20415;-77
2023/11/01 02:50:19;;;;;;;8.30;3.13;;;;;;;;;;2612287;54;20434;-77
2023/11/01 02:52:47;;;;;;;6.37;3.20;;;;;;;;;;2611872;47;20940;-78
2023/11/01 02:55:14;;;;;;;10.93;3.07;;;;;;;;;;2613146;54;20395;-77
2023/11/01 02:57:42;;;;;;;9.73;3.63;;;;;;;;;;2613216;54;20910;-77
2023/11/01 03:00:08;;;;;;;7.70;3.53;;;;;;;;;;2613700;54;20523;-75
2023/11/01 03:02:35;;;;;;;5.20;2.90;;;;;;;;;;2616835;47;20411;-76
2023/11/01 03:05:04;;;;;;;3.93;2.93;;;;;;;;;;2617122;47;20692;-76
2023/11/01 03:07:39;;;;;;;7.10;3.83;;;;;;;;;;2617487;54;20383;-77
2023/11/01 03:10:17;;;;;;;4.83;3.30;;;;;;;;;;2616693;47;20444;-77
2023/11/01 03:13:14;;;;;;;6.40;3.40;;;;;;;;;;2617120;39;20813;-77
2023/11/01 03:16:10;;;;;;;6.43;3.30;;;;;;;;;;2616057;54;20415;-78
2023/11/01 03:18:47;;;;;;;4.43;3.13;;;;;;;;;;2615959;54;20963;-76
2023/11/01 03:21:29;;;;;;;5.20;3.47;;;;;;;;;;2615452;54;21221;-76
2023/11/01 03:24:06;;;;;;;6.00;2.70;;;;;;;;;;2616209;54;20411;-77
2023/11/01 03:26:34;;;;;;;4.90;3.07;;;;;;;;;;2615164;54;20487;-76
2023/11/01 03:29:02;;;;;;;5.90;3.17;;;;;;;;;;2615787;39;20864;-76
2023/11/01 03:31:28;;;;;;;3.70;2.70;;;;;;;;;;2615699;54;20614;-77
2023/11/01 03:33:54;;;;;;;4.17;2.43;;;;;;;;;;2615631;47;20404;-76
2023/11/01 03:36:21;;;;;;;6.17;3.43;;;;;;;;;;2615377;54;20450;-77
2023/11/01 03:38:47;;;;;;;4.30;2.90;;;;;;;;;;2615495;54;20407;-77
2023/11/01 03:41:14;;;;;;;5.27;3.00;;;;;;;;;;2615346;54;20420;-77
2023/11/01 03:43:41;;;;;;;7.70;3.20;;;;;;;;;;2615435;54;20411;-77
2023/11/01 03:46:07;;;;;;;2.67;1.93;;;;;;;;;;2615238;54;20448;-78
2023/11/01 03:48:33;;;;;;;6.00;2.70;;;;;;;;;;2614902;47;20451;-77
2023/11/01 03:50:59;;;;;;;4.97;2.60;;;;;;;;;;2615137;54;20837;-77
2023/11/01 03:53:25;;;;;;;5.50;2.47;;;;;;;;;;2614406;54;20420;-77
2023/11/01 03:55:51;;;;;;;5.00;3.00;;;;;;;;;;2615638;39;21170;-78
2023/11/01 03:58:18;;;;;;;5.93;2.57;;;;;;;;;;2614857;54;20427;-78
2023/11/01 04:00:44;;;;;;;6.83;2.50;;;;;;;;;;2614547;54;21343;-76
2023/11/01 04:03:10;;;;;;;6.40;2.90;;;;;;;;;;2614810;54;20966;-77
2023/11/01 04:05:36;;;;;;;7.43;3.07;;;;;;;;;;2614847;54;20407;-78
2023/11/01 04:08:03;;;;;;;2.63;1.80;;;;;;;;;;2615744;39;20826;-76
2023/11/01 04:10:29;;;;;;;7.10;2.07;;;;;;;;;;2614732;54;20427;-76
2023/11/01 04:12:56;;;;;;;3.77;2.20;;;;;;;;;;2615233;54;20408;-76
2023/11/01 04:15:23;;;;;;;5.23;1.77;;;;;;;;;;2614364;54;20423;-77
2023/11/01 04:17:49;;;;;;;3.57;2.30;;;;;;;;;;2614663;54;20419;-77
2023/11/01 04:20:16;;;;;;;4.23;2.17;;;;;;;;;;2613682;46;20439;-77
2023/11/01 04:22:42;;;;;;;6.37;2.10;;;;;;;;;;2613070;47;20399;-77
2023/11/01 04:25:11;;;;;;;4.03;2.67;;;;;;;;;;2614632;39;20900;-77
2023/11/01 04:27:41;;;;;;;3.17;2.20;;;;;;;;;;2614280;54;20519;-77
2023/11/01 04:30:08;;;;;;;5.37;2.70;;;;;;;;;;2613446;39;21373;-76
2023/11/01 04:32:35;;;;;;;4.73;2.10;;;;;;;;;;2613218;54;20416;-77
2023/11/01 04:35:01;;;;;;;3.73;2.00;;;;;;;;;;2613725;54;20394;-77
2023/11/01 04:37:30;;;;;;;3.60;2.10;;;;;;;;;;2614739;39;20800;-78
2023/11/01 04:39:58;;;;;;;2.20;1.53;;;;;;;;;;2613994;54;20404;-75
2023/11/01 04:42:24;;;;;;;5.50;1.90;;;;;;;;;;2613187;47;20570;-78
2023/11/01 04:44:51;;;;;;;3.10;1.93;;;;;;;;;;2614586;54;20490;-78
2023/11/01 04:47:17;;;;;;;4.27;1.90;;;;;;;;;;2614493;54;21123;-78
2023/11/01 04:49:43;;;;;;;3.70;1.70;;;;;;;;;;2613956;47;20430;-76
2023/11/01 04:52:09;;;;;;;4.20;1.63;;;;;;;;;;2614648;54;20454;-76
2023/11/01 04:54:35;;;;;;;5.63;2.17;;;;;;;;;;2614397;54;20457;-76
2023/11/01 04:57:02;;;;;;;2.63;1.73;;;;;;;;;;2614059;54;21520;-76
2023/11/01 04:59:29;;;;;;;2.63;2.13;;;;;;;;;;2614534;46;20456;-77
2023/11/01 05:01:55;;;;;;;6.40;2.63;;;;;;;;;;2614206;54;20899;-76
2023/11/01 05:04:23;;;;;;;4.73;2.03;;;;;;;;;;2614672;54;20438;-77
2023/11/01 05:06:49;;;;;;;2.83;1.20;;;;;;;;;;2612847;51;20530;-77
2023/11/01 05:09:15;;;;;;;2.67;1.73;;;;;;;;;;2613491;54;20427;-76
2023/11/01 05:11:41;;;;;;;4.67;2.20;;;;;;;;;;2613609;54;20420;-76
2023/11/01 05:14:08;;;;;;;3.33;2.20;;;;;;;;;;2613421;54;20462;-77
2023/11/01 05:16:34;;;;;;;3.10;1.70;;;;;;;;;;2613777;54;20437;-76
2023/11/01 05:19:01;;;;;;;3.27;1.57;;;;;;;;;;2613113;47;20442;-78
2023/11/01 05:21:27;;;;;;;3.57;2.10;;;;;;;;;;2611378;46;20427;-76
2023/11/01 05:23:53;;;;;;;3.00;1.80;;;;;;;;;;2612863;54;20415;-76
2023/11/01 05:26:19;;;;;;;2.60;1.87;;;;;;;;;;2612769;54;21134;-76
2023/11/01 05:28:45;;;;;;;4.10;1.93;;;;;;;;;;2611696;54;20415;-76
2023/11/01 05:31:11;;;;;;;5.03;2.27;;;;;;;;;;2611894;46;20437;-76
2023/11/01 05:33:37;;;;;;;3.40;1.67;;;;;;;;;;2613453;54;20430;-76
2023/11/01 05:36:06;;;;;;;3.60;1.70;;;;;;;;;;2612760;54;20422;-76
2023/11/01 05:38:35;;;;;;;9.30;2.17;;;;;;;;;;2611871;54;20427;-77
2023/11/01 05:41:01;;;;;;;4.20;2.47;;;;;;;;;;2612567;54;20411;-77
2023/11/01 05:43:27;;;;;;;4.20;2.13;;;;;;;;;;2613313;39;20805;-76
2023/11/01 05:45:53;;;;;;;4.13;2.43;;;;;;;;;;2612159;49;20435;-77
2023/11/01 05:48:19;;;;;;;3.10;2.33;;;;;;;;;;2612165;54;20399;-77
2023/11/01 05:50:45;;;;;;;3.87;1.90;;;;;;;;;;2611571;54;20429;-76
2023/11/01 05:53:11;;;;;;;3.67;2.10;;;;;;;;;;2611674;47;20441;-76
2023/11/01 05:55:38;;;;;;;4.23;2.53;;;;;;;;;;2613802;39;21236;-77
2023/11/01 05:58:07;;;;;;;3.63;2.00;;;;;;;;;;2612854;54;20412;-76
2023/11/01 06:00:34;;;;;;;5.97;2.10;;;;;;;;;;2611891;54;20415;-76
2023/11/01 06:03:00;;;;;;;4.17;2.17;;;;;;;;;;2613021;54;20403;-76
2023/11/01 06:05:26;;;;;;;9.10;3.40;;;;;;;;;;2612788;54;20467;-76
2023/11/01 06:07:53;;;;;;;8.63;3.43;;;;;;;;;;2613218;31;20894;-76
2023/11/01 06:10:19;;;;;;;3.57;2.13;;;;;;;;;;2612910;54;20421;-75
2023/11/01 06:12:45;;;;;;;3.97;3.50;;;;;;;;;;2612553;54;20419;-76
2023/11/01 06:15:11;;;;;;;5.87;2.60;;;;;;;;;;2612880;54;20522;-75
2023/11/01 06:17:38;;;;;;;3.60;2.63;;;;;;;;;;2612678;54;20427;-76
2023/11/01 06:20:06;;;;;;;13.30;4.07;;;;;;;;;;2613216;54;21017;-77
2023/11/01 06:22:32;;;;;;;6.00;3.10;;;;;;;;;;2612898;54;20541;-76
2023/11/01 06:25:00;;;;;;;8.63;2.70;;;;;;;;;;2611050;54;20486;-75
2023/11/01 06:27:26;;;;;;;4.27;2.73;;;;;;;;;;2613248;54;20423;-76
2023/11/01 06:29:52;;;;;;;6.83;2.60;;;;;;;;;;2612585;54;20419;-77
2023/11/01 06:32:19;;;;;;;11.23;2.63;;;;;;;;;;2613406;54;20416;-75
2023/11/01 06:34:45;;;;;;;20.97;2.93;;;;;;;;;;2613826;54;20399;-75
2023/11/01 06:37:11;;;;;;;6.87;2.60;;;;;;;;;;2613037;54;20415;-76
2023/11/01 06:39:37;;;;;;;5.03;2.10;;;;;;;;;;2613709;54;20431;-75
2023/11/01 06:42:04;;;;;;;7.37;2.60;;;;;;;;;;2612366;47;20457;-76
2023/11/01 06:44:33;;;;;;;5.37;2.00;;;;;;;;;;2614168;54;20993;-82
2023/11/01 06:46:59;;;;;;;6.97;2.17;;;;;;;;;;2612447;54;20407;-75
2023/11/01 06:49:25;;;;;;;5.20;2.40;;;;;;;;;;2607755;39;21189;-74
2023/11/01 06:51:51;;;;;;;5.30;2.00;;;;;;;;;;2611497;54;20441;-75
2023/11/01 06:54:17;;;;;;;3.70;2.27;;;;;;;;;;2612170;54;20403;-75
2023/11/01 06:56:47;;;;;;;6.13;2.50;;;;;;;;;;2612585;54;20961;-74
2023/11/01 06:59:13;;;;;;;11.33;2.80;;;;;;;;;;2612762;54;20438;-74
2023/11/01 07:01:39;;;;;;;6.27;2.23;;;;;;;;;;2613023;54;20399;-76
2023/11/01 07:04:06;;;;;;;5.93;3.03;;;;;;;;;;2613024;39;20781;-76
2023/11/01 07:06:32;;;;;;;6.53;2.40;;;;;;;;;;2612577;54;20511;-77
2023/11/01 07:08:58;;;;;;;8.47;2.10;;;;;;;;;;2612749;54;21070;-77
2023/11/01 07:11:25;;;;;;;7.70;2.87;;;;;;;;;;2613224;54;20396;-76
2023/11/01 07:13:51;;;;;;;4.50;2.27;;;;;;;;;;2613616;54;20406;-77
2023/11/01 07:16:17;;;;;;;6.03;2.40;;;;;;;;;;2613659;54;20917;-77
2023/11/01 07:18:43;;;;;;;12.37;2.40;;;;;;;;;;2609817;54;20392;-77
2023/11/01 07:21:10;;;;;;;4.30;2.40;;;;;;;;;;2613189;39;20839;-77
2023/11/01 07:23:36;;;;;;;8.67;2.60;;;;;;;;;;2612914;54;20403;-77
2023/11/01 07:26:02;;;;;;;7.23;3.80;;;;;;;;;;2614069;46;20446;-76
2023/11/01 07:28:28;;;;;;;15.33;2.90;;;;;;;;;;2613060;39;20887;-76
2023/11/01 07:30:54;;;;;;;16.03;6.80;;;;;;;;;;2612292;47;20415;-77
2023/11/01 07:33:20;;;;;;;13.80;2.80;;;;;;;;;;2612341;51;20433;-75
2023/11/01 07:35:47;;;;;;;8.10;2.43;;;;;;;;;;2612805;54;20421;-78
2023/11/01 07:38:13;;;;;;;5.97;2.37;;;;;;;;;;2612700;54;20411;-77
2023/11/01 07:40:39;;;;;;;5.60;2.10;;;;;;;;;;2612593;54;20431;-76
2023/11/01 07:43:07;;;;;;;5.10;2.20;;;;;;;;;;2612076;54;20953;-75
2023/11/01 07:45:33;;;;;;;4.63;2.27;;;;;;;;;;2613838;54;20601;-76
2023/11/01 07:47:59;;;;;;;16.00;2.90;;;;;;;;;;2613504;46;20427;-76
2023/11/01 07:50:25;;;;;;;7.50;2.50;;;;;;;;;;2612753;54;20476;-78
2023/11/01 07:52:51;;;;;;;10.70;2.20;;;;;;;;;;2614041;54;20575;-77
2023/11/01 07:55:17;;;;;;;7.10;2.00;;;;;;;;;;2613688;54;20415;-78
2023/11/01 07:57:45;;;;;;;6.57;2.70;;;;;;;;;;2612443;47;20442;-76
2023/11/01 08:00:12;;;;;;;4.23;2.00;;;;;;;;;;2612840;54;20388;-76
2023/11/01 08:02:38;;;;;;;6.70;2.67;;;;;;;;;;2612400;46;20474;-76
2023/11/01 08:05:05;;;;;;;10.57;2.43;;;;;;;;;;2614004;54;20423;-77
2023/11/01 08:07:33;;;;;;;7.30;2.00;;;;;;;;;;2613715;54;20448;-78
2023/11/01 08:10:01;;;;;;;8.20;2.23;;;;;;;;;;2613248;54;20411;-77
2023/11/01 08:12:27;;;;;;;8.50;2.50;;;;;;;;;;2613511;54;20388;-76
2023/11/01 08:14:53;;;;;;;11.47;4.50;;;;;;;;;;2613049;54;20534;-75
2023/11/01 08:17:19;;;;;;;5.00;2.37;;;;;;;;;;2613239;54;20395;-76
2023/11/01 08:19:47;;;;;;;5.20;1.97;;;;;;;;;;2613039;54;20403;-76
2023/11/01 08:22:13;;;;;;;11.13;2.67;;;;;;;;;;2613221;39;21151;-77
2023/11/01 08:24:39;;;;;;;4.93;2.40;;;;;;;;;;2613000;54;20518;-77
2023/11/01 08:27:06;;;;;;;9.30;2.40;;;;;;;;;;2614225;54;20435;-78
2023/11/01 08:29:33;;;;;;;4.53;2.00;;;;;;;;;;2612652;47;20591;-78
2023/11/01 08:31:59;;;;;;;10.03;2.83;;;;;;;;;;2613727;54;20953;-81
2023/11/01 08:34:26;;;;;;;6.40;2.80;;;;;;;;;;2612310;54;20438;-77
2023/11/01 08:36:52;;;;;;;7.03;2.47;;;;;;;;;;2613396;54;20552;-77
2023/11/01 08:39:18;;;;;;;4.83;1.80;;;;;;;;;;2613210;54;20427;-77
2023/11/01 08:41:44;;;;;;;4.80;2.43;;;;;;;;;;2612605;54;21694;-77
2023/11/01 08:44:10;;;;;;;6.03;2.77;;;;;;;;;;2612077;54;20451;-76
2023/11/01 08:46:36;;;;;;;5.97;2.50;;;;;;;;;;2612426;54;20454;-78
2023/11/01 08:49:02;;;;;;;6.33;1.73;;;;;;;;;;2612916;54;20395;-77
2023/11/01 08:51:28;;;;;;;5.10;2.47;;;;;;;;;;2615036;47;20418;-77
2023/11/01 08:53:55;;;;;;;6.80;2.33;;;;;;;;;;2615969;54;20419;-78
2023/11/01 08:56:33;;;;;;;15.23;3.33;;;;;;;;;;2615920;54;20435;-78
2023/11/01 08:59:00;;;;;;;3.77;2.40;;;;;;;;;;2616427;54;20396;-77
2023/11/01 09:01:34;;;;;;;4.37;2.30;;;;;;;;;;2616529;46;20426;-78
2023/11/01 09:04:00;;;;;;;6.80;3.20;;;;;;;;;;2616060;51;20420;-78
2023/11/01 09:06:29;;;;;;;5.47;2.57;;;;;;;;;;2617536;54;20464;-78
2023/11/01 09:08:55;;;;;;;6.97;2.60;;;;;;;;;;2616206;54;20439;-78
2023/11/01 09:11:25;;;;;;;8.43;2.73;;;;;;;;;;2617529;39;20963;-78
2023/11/01 09:13:58;;;;;;;12.33;2.87;;;;;;;;;;2615774;54;20438;-77
2023/11/01 09:16:26;;;;;;;4.57;2.60;;;;;;;;;;2615668;47;20453;-78
2023/11/01 09:18:53;;;;;;;3.97;2.60;;;;;;;;;;2616109;54;20435;-77
2023/11/01 09:21:26;;;;;;;6.80;2.70;;;;;;;;;;2615925;54;20431;-79
2023/11/01 09:24:09;;;;;;;5.20;2.97;;;;;;;;;;2616413;54;20421;-77
2023/11/01 09:26:36;;;;;;;7.27;2.50;;;;;;;;;;2616571;39;20776;-78
2023/11/01 09:29:03;;;;;;;7.80;3.63;;;;;;;;;;2615841;47;20423;-77
2023/11/01 09:31:29;;;;;;;5.00;2.73;;;;;;;;;;2615929;47;20427;-76
2023/11/01 09:34:20;;;;;;;7.07;2.70;;;;;;;;;;2616884;31;20865;-77
2023/11/01 09:36:48;;;;;;;6.10;2.80;;;;;;;;;;2615643;54;20407;-78
2023/11/01 09:39:17;;;;;;;8.30;2.90;;;;;;;;;;2616867;39;20802;-80
2023/11/01 09:42:08;;;;;;;4.00;2.50;;;;;;;;;;2616778;39;20802;-78
2023/11/01 09:44:34;;;;;;;2.37;2.10;;;;;;;;;;2616394;31;20898;-78
2023/11/01 09:47:02;;;;;;;6.43;2.40;;;;;;;;;;2615684;51;20412;-76
2023/11/01 09:49:40;;;;;;;6.27;2.70;;;;;;;;;;2616557;47;20407;-77
2023/11/01 09:52:07;;;;;;;5.63;2.60;;;;;;;;;;2613694;47;20450;-77
2023/11/01 09:54:33;;;;;;;2.90;2.43;;;;;;;;;;2613385;47;20421;-78
2023/11/01 09:57:00;;;;;;;7.10;2.60;;;;;;;;;;2613618;54;20530;-77
2023/11/01 09:59:26;;;;;;;7.63;2.67;;;;;;;;;;2613428;54;20418;-76
2023/11/01 10:01:52;;;;;;;11.90;3.27;;;;;;;;;;2613014;54;20443;-74
2023/11/01 10:04:19;;;;;;;5.60;2.87;;;;;;;;;;2613317;39;20505;-75
2023/11/01 10:06:46;;;;;;;3.70;2.50;;;;;;;;;;2613740;54;20412;-75
2023/11/01 10:09:13;;;;;;;3.30;2.90;;;;;;;;;;2612745;46;20492;-78
2023/11/01 10:11:39;;;;;;;3.23;2.83;;;;;;;;;;2613967;54;20416;-76
2023/11/01 10:14:05;;;;;;;7.97;2.80;;;;;;;;;;2612506;54;20486;-75
2023/11/01 10:16:31;;;;;;;5.27;2.60;;;;;;;;;;2613399;39;20866;-75
2023/11/01 10:18:57;;;;;;;8.10;3.00;;;;;;;;;;2612698;54;20475;-75
2023/11/01 10:21:26;;;;;;;8.27;2.90;;;;;;;;;;2612606;54;20417;-75
2023/11/01 10:23:54;;;;;;;4.20;3.10;;;;;;;;;;2613297;54;20435;-76
2023/11/01 10:26:20;;;;;;;5.23;3.60;;;;;;;;;;2613360;47;20407;-74
2023/11/01 10:28:47;;;;;;;7.37;2.70;;;;;;;;;;2613417;54;20548;-76
2023/11/01 10:31:14;;;;;;;6.53;2.90;;;;;;;;;;2612258;54;20557;-76
2023/11/01 10:33:41;;;;;;;5.37;4.57;;;;;;;;;;2613223;31;20885;-75
2023/11/01 10:36:07;;;;;;;2.30;2.10;;;;;;;;;;2613077;54;20423;-76
2023/11/01 10:38:34;;;;;;;6.80;2.80;;;;;;;;;;2611783;54;21335;-75
2023/11/01 10:41:00;;;;;;;8.13;3.33;;;;;;;;;;2611332;54;20432;-76
2023/11/01 10:43:29;;;;;;;2.97;2.37;;;;;;;;;;2612422;47;20465;-75
2023/11/01 10:46:00;;;;;;;4.93;3.53;;;;;;;;;;2612460;54;20463;-76
2023/11/01 10:48:27;;;;;;;4.40;3.10;;;;;;;;;;2612126;54;20435;-76
2023/11/01 10:50:53;;;;;;;4.07;3.40;;;;;;;;;;2612646;54;20414;-75
2023/11/01 10:53:25;;;;;;;7.00;3.77;;;;;;;;;;2612177;47;20464;-75
2023/11/01 10:55:52;;;;;;;3.40;3.10;;;;;;;;;;2610585;54;20438;-76
2023/11/01 10:58:24;;;;;;;7.23;3.53;;;;;;;;;;2613171;39;20866;-75
2023/11/01 11:00:54;;;;;;;5.50;3.50;;;;;;;;;;2613046;39;20819;-78
2023/11/01 11:03:28;;;;;;;10.10;3.97;;;;;;;;;;2613395;54;20427;-78
2023/11/01 11:05:55;;;;;;;7.30;4.20;;;;;;;;;;2613267;54;20949;-76
2023/11/01 11:08:21;;;;;;;7.20;4.20;;;;;;;;;;2613340;54;20456;-77
2023/11/01 11:10:48;;;;;;;7.57;3.40;;;;;;;;;;2612653;54;20547;-79
2023/11/01 11:13:16;;;;;;;4.00;3.40;;;;;;;;;;2613241;54;20410;-77
2023/11/01 11:15:50;;;;;;;5.50;3.63;;;;;;;;;;2612293;54;20417;-77
2023/11/01 11:18:28;;;;;;;4.13;3.53;;;;;;;;;;2611102;47;20502;-77
2023/11/01 11:20:55;;;;;;;4.53;3.77;;;;;;;;;;2611686;54;20431;-77
2023/11/01 11:23:35;;;;;;;6.03;3.80;;;;;;;;;;2612772;39;20798;-79
2023/11/01 11:26:04;;;;;;;4.00;3.57;;;;;;;;;;2610663;47;20417;-78
2023/11/01 11:28:47;;;;;;;4.37;3.57;;;;;;;;;;2612720;54;20497;-76
2023/11/01 11:31:20;;;;;;;5.50;4.20;;;;;;;;;;2610932;54;20456;-77
2023/11/01 11:33:46;;;;;;;4.60;4.20;;;;;;;;;;2613308;39;20891;-77
2023/11/01 11:36:23;;;;;;;4.53;4.03;;;;;;;;;;2612574;54;20376;-77
2023/11/01 11:38:58;;;;;;;5.60;3.93;;;;;;;;;;2613519;54;20417;-76
2023/11/01 11:41:37;;;;;;;5.20;4.20;;;;;;;;;;2613295;54;20468;-76
2023/11/01 11:44:03;;;;;;;9.20;3.63;;;;;;;;;;2613748;54;20425;-76
2023/11/01 11:46:35;;;;;;;10.03;4.00;;;;;;;;;;2614629;31;20823;-77
2023/11/01 11:49:01;;;;;;;5.07;3.60;;;;;;;;;;2613778;54;20424;-78
2023/11/01 11:51:35;;;;;;;4.00;3.60;;;;;;;;;;2613274;54;20430;-78
2023/11/01 11:54:11;;;;;;;5.17;4.00;;;;;;;;;;2612997;47;20418;-76
2023/11/01 11:56:38;;;;;;;9.63;3.77;;;;;;;;;;2614379;54;20514;-75
2023/11/01 11:59:04;;;;;;;7.47;4.50;;;;;;;;;;2613255;54;20546;-77
2023/11/01 12:01:30;;;;;;;4.63;3.33;;;;;;;;;;2612325;54;20513;-77
2023/11/01 12:03:57;;;;;;;7.77;3.77;;;;;;;;;;2613128;47;20501;-78
2023/11/01 12:06:24;;;;;;;6.63;4.10;;;;;;;;;;2613150;54;20404;-77
2023/11/01 12:08:51;;;;;;;7.20;4.27;;;;;;;;;;2612409;54;20519;-76
2023/11/01 12:11:17;;;;;;;7.33;4.03;;;;;;;;;;2613512;54;20433;-77
2023/11/01 12:13:44;;;;;;;4.97;4.13;;;;;;;;;;2612491;54;20451;-76
2023/11/01 12:16:27;;;;;;;7.97;4.57;;;;;;;;;;2612363;54;21003;-76
2023/11/01 12:19:13;;;;;;;5.73;5.00;;;;;;;;;;2613476;46;20412;-74
2023/11/01 12:21:40;;;;;;;6.83;4.50;;;;;;;;;;2612845;46;20886;-75
2023/11/01 12:24:07;;;;;;;5.23;4.73;;;;;;;;;;2612549;46;20430;-75
2023/11/01 12:26:34;;;;;;;7.40;4.57;;;;;;;;;;2613311;54;20466;-74
2023/11/01 12:29:04;;;;;;;5.10;4.80;;;;;;;;;;2613639;54;20488;-75
2023/11/01 12:31:31;;;;;;;6.80;4.60;;;;;;;;;;2612954;54;20380;-76
2023/11/01 12:34:16;;;;;;;5.10;4.60;;;;;;;;;;2613580;54;20953;-74
2023/11/01 12:36:42;;;;;;;10.70;5.53;;;;;;;;;;2613775;54;20543;-77
2023/11/01 12:39:09;;;;;;;4.60;4.00;;;;;;;;;;2613536;54;20966;-75
2023/11/01 12:41:36;;;;;;;6.07;4.13;;;;;;;;;;2613271;54;20420;-74
2023/11/01 12:44:02;;;;;;;4.47;4.07;;;;;;;;;;2613004;47;20427;-74
2023/11/01 12:46:28;;;;;;;8.77;4.70;;;;;;;;;;2613171;54;20435;-76
2023/11/01 12:48:56;;;;;;;5.97;4.40;;;;;;;;;;2613506;39;21014;-74
2023/11/01 12:51:23;;;;;;;8.93;5.17;;;;;;;;;;2610977;54;20419;-75
2023/11/01 12:53:49;;;;;;;6.07;5.10;;;;;;;;;;2614223;39;20803;-75
2023/11/01 12:56:15;;;;;;;7.03;4.60;;;;;;;;;;2613149;54;20417;-74
2023/11/01 12:58:41;;;;;;;5.23;4.60;;;;;;;;;;2613298;54;20514;-73
2023/11/01 13:01:07;;;;;;;8.90;4.37;;;;;;;;;;2613117;54;21098;-75
2023/11/01 13:03:34;;;;;;;9.33;4.77;;;;;;;;;;2612793;54;20448;-74
2023/11/01 13:06:01;;;;;;;6.60;5.20;;;;;;;;;;2613111;46;20481;-74
2023/11/01 13:08:28;;;;;;;5.43;4.00;;;;;;;;;;2614581;54;20569;-75
2023/11/01 13:10:54;;;;;;;7.03;4.87;;;;;;;;;;2614206;54;20407;-74
2023/11/01 13:13:21;;;;;;;7.70;4.97;;;;;;;;;;2612977;54;20443;-74
2023/11/01 13:15:47;;;;;;;4.77;4.30;;;;;;;;;;2613177;54;20472;-74
2023/11/01 13:18:13;;;;;;;10.80;4.93;;;;;;;;;;2612969;54;20433;-75
2023/11/01 13:20:39;;;;;;;10.53;4.63;;;;;;;;;;2613118;54;20424;-75
2023/11/01 13:23:05;;;;;;;5.17;4.77;;;;;;;;;;2614129;54;20436;-74
2023/11/01 13:25:31;;;;;;;8.43;4.90;;;;;;;;;;2612354;54;21088;-74
2023/11/01 13:27:57;;;;;;;13.80;4.23;;;;;;;;;;2613839;54;20481;-75
2023/11/01 13:30:24;;;;;;;6.83;4.47;;;;;;;;;;2612815;54;21009;-74
2023/11/01 13:32:50;;;;;;;6.43;4.80;;;;;;;;;;2613242;54;20429;-74
2023/11/01 13:35:16;;;;;;;5.13;4.63;;;;;;;;;;2612201;54;20411;-75
2023/11/01 13:37:42;;;;;;;5.93;4.67;;;;;;;;;;2613652;54;20433;-76
2023/11/01 13:40:09;;;;;;;4.73;4.23;;;;;;;;;;2612751;54;20423;-75
2023/11/01 13:42:35;;;;;;;9.27;5.10;;;;;;;;;;2612424;54;20982;-74
2023/11/01 13:45:01;;;;;;;6.50;4.30;;;;;;;;;;2611654;47;20534;-77
2023/11/01 13:47:28;;;;;;;4.60;3.70;;;;;;;;;;2612831;54;20966;-73
2023/11/01 13:49:54;;;;;;;7.80;4.70;;;;;;;;;;2611075;54;20972;-75
2023/11/01 13:52:20;;;;;;;6.53;3.80;;;;;;;;;;2612289;47;20428;-74
2023/11/01 13:54:46;;;;;;;7.57;4.60;;;;;;;;;;2612794;54;21031;-74
2023/11/01 13:57:12;;;;;;;4.70;4.03;;;;;;;;;;2613412;54;20408;-74
2023/11/01 13:59:38;;;;;;;6.13;4.37;;;;;;;;;;2613550;54;20566;-76
2023/11/01 14:02:05;;;;;;;5.10;4.30;;;;;;;;;;2611894;54;20387;-74
2023/11/01 14:04:31;;;;;;;4.97;4.37;;;;;;;;;;2612207;54;20419;-74
2023/11/01 14:06:58;;;;;;;6.77;4.23;;;;;;;;;;2612753;54;20431;-74
2023/11/01 14:09:25;;;;;;;7.40;5.00;;;;;;;;;;2611649;54;20435;-75
2023/11/01 14:11:51;;;;;;;7.03;4.70;;;;;;;;;;2611867;47;20407;-75
2023/11/01 14:14:18;;;;;;;5.40;3.83;;;;;;;;;;2613008;39;20794;-74
2023/11/01 14:16:44;;;;;;;4.07;3.77;;;;;;;;;;2612340;54;20400;-74
2023/11/01 14:19:10;;;;;;;6.20;4.87;;;;;;;;;;2611946;54;20399;-73
2023/11/01 14:21:37;;;;;;;5.97;4.37;;;;;;;;;;2612447;54;20423;-73
2023/11/01 14:24:03;;;;;;;7.83;4.03;;;;;;;;;;2611783;47;20475;-74
2023/11/01 14:26:29;;;;;;;7.40;4.50;;;;;;;;;;2610882;47;21002;-74
2023/11/01 14:28:55;;;;;;;9.60;4.80;;;;;;;;;;2612677;54;20496;-74
2023/11/01 14:31:24;;;;;;;8.93;4.53;;;;;;;;;;2612690;54;20395;-76
2023/11/01 14:33:52;;;;;;;6.40;4.20;;;;;;;;;;2615446;54;20423;-76
2023/11/01 14:36:32;;;;;;;11.17;4.53;;;;;;;;;;2616036;46;20425;-76
2023/11/01 14:39:00;;;;;;;9.00;4.40;;;;;;;;;;2615931;47;20423;-76
2023/11/01 14:41:27;;;;;;;6.60;3.53;;;;;;;;;;2615610;47;21346;-74
2023/11/01 14:43:53;;;;;;;12.03;7.00;;;;;;;;;;2612383;54;20411;-74